sensor_id;sensor_type;location;lat;lon;timestamp;P1;durP1;ratioP1;P2;durP2;ratioP2
69714;SDS011;56981;53.532;49.398;2023-04-03T00:00:25;6.72;;;2.50;;
69714;SDS011;56981;53.532;49.398;2023-04-03T00:02:51;4.97;;;1.88;;
69714;SDS011;56981;53.532;49.398;2023-04-03T00:05:17;3.47;;;1.70;;
69714;SDS011;56981;53.532;49.398;2023-04-03T00:07:43;3.10;;;1.77;;
69714;SDS011;56981;53.532;49.398;2023-04-03T00:10:09;17.25;;;2.92;;
69714;SDS011;56981;53.532;49.398;2023-04-03T00:12:35;9.57;;;2.63;;
69714;SDS011;56981;53.532;49.398;2023-04-03T00:15:01;9.27;;;2.85;;
69714;SDS011;56981;53.532;49.398;2023-04-03T00:17:28;12.40;;;2.92;;
69714;SDS011;56981;53.532;49.398;2023-04-03T00:19:54;5.72;;;2.35;;
69714;SDS011;56981;53.532;49.398;2023-04-03T00:22:21;9.88;;;3.10;;
69714;SDS011;56981;53.532;49.398;2023-04-03T00:24:47;5.60;;;1.92;;
69714;SDS011;56981;53.532;49.398;2023-04-03T00:27:13;6.18;;;2.17;;
69714;SDS011;56981;53.532;49.398;2023-04-03T00:29:41;6.05;;;2.78;;
69714;SDS011;56981;53.532;49.398;2023-04-03T00:32:07;7.13;;;2.50;;
69714;SDS011;56981;53.532;49.398;2023-04-03T00:34:33;7.40;;;1.90;;
69714;SDS011;56981;53.532;49.398;2023-04-03T00:36:59;5.32;;;2.13;;
69714;SDS011;56981;53.532;49.398;2023-04-03T00:39:25;5.85;;;2.10;;
69714;SDS011;56981;53.532;49.398;2023-04-03T00:41:52;5.93;;;2.40;;
69714;SDS011;56981;53.532;49.398;2023-04-03T00:44:22;7.15;;;2.53;;
69714;SDS011;56981;53.532;49.398;2023-04-03T00:47:08;7.22;;;2.33;;
69714;SDS011;56981;53.532;49.398;2023-04-03T00:49:37;4.15;;;1.88;;
69714;SDS011;56981;53.532;49.398;2023-04-03T00:52:04;7.10;;;2.22;;
69714;SDS011;56981;53.532;49.398;2023-04-03T00:54:34;8.65;;;2.35;;
69714;SDS011;56981;53.532;49.398;2023-04-03T00:57:02;12.25;;;3.78;;
69714;SDS011;56981;53.532;49.398;2023-04-03T00:59:31;12.75;;;3.15;;
69714;SDS011;56981;53.532;49.398;2023-04-03T01:02:01;10.02;;;2.63;;
69714;SDS011;56981;53.532;49.398;2023-04-03T01:04:28;5.30;;;2.47;;
69714;SDS011;56981;53.532;49.398;2023-04-03T01:06:56;7.35;;;2.78;;
69714;SDS011;56981;53.532;49.398;2023-04-03T01:09:25;8.13;;;2.45;;
69714;SDS011;56981;53.532;49.398;2023-04-03T01:11:51;3.70;;;2.17;;
69714;SDS011;56981;53.532;49.398;2023-04-03T01:14:17;6.18;;;2.38;;
69714;SDS011;56981;53.532;49.398;2023-04-03T01:16:51;9.05;;;3.05;;
69714;SDS011;56981;53.532;49.398;2023-04-03T01:19:18;3.67;;;2.03;;
69714;SDS011;56981;53.532;49.398;2023-04-03T01:21:59;9.00;;;3.35;;
69714;SDS011;56981;53.532;49.398;2023-04-03T01:24:41;12.80;;;2.92;;
69714;SDS011;56981;53.532;49.398;2023-04-03T01:27:07;5.10;;;2.55;;
69714;SDS011;56981;53.532;49.398;2023-04-03T01:29:35;3.75;;;2.20;;
69714;SDS011;56981;53.532;49.398;2023-04-03T01:32:03;7.07;;;3.15;;
69714;SDS011;56981;53.532;49.398;2023-04-03T01:34:30;3.92;;;2.03;;
69714;SDS011;56981;53.532;49.398;2023-04-03T01:36:56;13.48;;;2.40;;
69714;SDS011;56981;53.532;49.398;2023-04-03T01:39:23;4.97;;;2.05;;
69714;SDS011;56981;53.532;49.398;2023-04-03T01:41:49;8.57;;;2.30;;
69714;SDS011;56981;53.532;49.398;2023-04-03T01:44:15;5.00;;;1.88;;
69714;SDS011;56981;53.532;49.398;2023-04-03T01:46:41;6.82;;;2.40;;
69714;SDS011;56981;53.532;49.398;2023-04-03T01:49:08;10.98;;;2.35;;
69714;SDS011;56981;53.532;49.398;2023-04-03T01:51:34;14.57;;;2.97;;
69714;SDS011;56981;53.532;49.398;2023-04-03T01:54:00;6.10;;;2.80;;
69714;SDS011;56981;53.532;49.398;2023-04-03T01:56:26;5.95;;;2.25;;
69714;SDS011;56981;53.532;49.398;2023-04-03T01:58:52;5.40;;;2.03;;
69714;SDS011;56981;53.532;49.398;2023-04-03T02:01:19;6.32;;;2.17;;
69714;SDS011;56981;53.532;49.398;2023-04-03T02:03:45;6.13;;;1.80;;
69714;SDS011;56981;53.532;49.398;2023-04-03T02:06:11;9.75;;;2.70;;
69714;SDS011;56981;53.532;49.398;2023-04-03T02:08:37;5.35;;;2.03;;
69714;SDS011;56981;53.532;49.398;2023-04-03T02:11:03;7.18;;;1.92;;
69714;SDS011;56981;53.532;49.398;2023-04-03T02:13:29;7.10;;;2.00;;
69714;SDS011;56981;53.532;49.398;2023-04-03T02:15:55;3.70;;;1.52;;
69714;SDS011;56981;53.532;49.398;2023-04-03T02:18:21;3.72;;;1.58;;
69714;SDS011;56981;53.532;49.398;2023-04-03T02:20:47;4.03;;;2.00;;
69714;SDS011;56981;53.532;49.398;2023-04-03T02:23:14;4.68;;;1.60;;
69714;SDS011;56981;53.532;49.398;2023-04-03T02:25:40;5.55;;;1.42;;
69714;SDS011;56981;53.532;49.398;2023-04-03T02:28:06;7.18;;;2.15;;
69714;SDS011;56981;53.532;49.398;2023-04-03T02:30:32;3.50;;;1.90;;
69714;SDS011;56981;53.532;49.398;2023-04-03T02:32:58;8.65;;;2.50;;
69714;SDS011;56981;53.532;49.398;2023-04-03T02:35:24;4.63;;;2.33;;
69714;SDS011;56981;53.532;49.398;2023-04-03T02:37:50;9.23;;;2.30;;
69714;SDS011;56981;53.532;49.398;2023-04-03T02:40:16;8.25;;;2.03;;
69714;SDS011;56981;53.532;49.398;2023-04-03T02:42:43;7.28;;;2.20;;
69714;SDS011;56981;53.532;49.398;2023-04-03T02:45:09;11.93;;;2.90;;
69714;SDS011;56981;53.532;49.398;2023-04-03T02:47:38;10.23;;;1.88;;
69714;SDS011;56981;53.532;49.398;2023-04-03T02:50:04;4.88;;;1.90;;
69714;SDS011;56981;53.532;49.398;2023-04-03T02:52:30;6.07;;;1.60;;
69714;SDS011;56981;53.532;49.398;2023-04-03T02:54:57;7.85;;;1.95;;
69714;SDS011;56981;53.532;49.398;2023-04-03T02:57:23;4.10;;;1.85;;
69714;SDS011;56981;53.532;49.398;2023-04-03T02:59:50;6.53;;;1.63;;
69714;SDS011;56981;53.532;49.398;2023-04-03T03:02:16;6.43;;;1.48;;
69714;SDS011;56981;53.532;49.398;2023-04-03T03:04:42;3.75;;;1.45;;
69714;SDS011;56981;53.532;49.398;2023-04-03T03:07:08;5.88;;;1.58;;
69714;SDS011;56981;53.532;49.398;2023-04-03T03:09:35;4.05;;;1.40;;
69714;SDS011;56981;53.532;49.398;2023-04-03T03:12:04;4.55;;;1.25;;
69714;SDS011;56981;53.532;49.398;2023-04-03T03:14:30;4.75;;;1.40;;
69714;SDS011;56981;53.532;49.398;2023-04-03T03:16:57;2.42;;;1.38;;
69714;SDS011;56981;53.532;49.398;2023-04-03T03:19:23;4.88;;;1.45;;
69714;SDS011;56981;53.532;49.398;2023-04-03T03:21:50;3.72;;;1.70;;
69714;SDS011;56981;53.532;49.398;2023-04-03T03:24:16;2.78;;;1.48;;
69714;SDS011;56981;53.532;49.398;2023-04-03T03:26:43;6.00;;;1.85;;
69714;SDS011;56981;53.532;49.398;2023-04-03T03:29:09;35.72;;;3.40;;
69714;SDS011;56981;53.532;49.398;2023-04-03T03:31:35;9.40;;;1.70;;
69714;SDS011;56981;53.532;49.398;2023-04-03T03:34:02;21.92;;;3.15;;
69714;SDS011;56981;53.532;49.398;2023-04-03T03:36:28;2.97;;;1.50;;
69714;SDS011;56981;53.532;49.398;2023-04-03T03:38:54;5.43;;;1.60;;
69714;SDS011;56981;53.532;49.398;2023-04-03T03:41:20;7.38;;;1.90;;
69714;SDS011;56981;53.532;49.398;2023-04-03T03:43:47;6.45;;;1.60;;
69714;SDS011;56981;53.532;49.398;2023-04-03T03:46:13;6.40;;;1.90;;
69714;SDS011;56981;53.532;49.398;2023-04-03T03:48:40;4.15;;;1.38;;
69714;SDS011;56981;53.532;49.398;2023-04-03T03:51:06;3.47;;;1.52;;
69714;SDS011;56981;53.532;49.398;2023-04-03T03:53:32;7.93;;;1.92;;
69714;SDS011;56981;53.532;49.398;2023-04-03T03:55:58;7.72;;;2.15;;
69714;SDS011;56981;53.532;49.398;2023-04-03T03:58:24;4.07;;;1.48;;
69714;SDS011;56981;53.532;49.398;2023-04-03T04:00:51;9.63;;;2.17;;
69714;SDS011;56981;53.532;49.398;2023-04-03T04:03:17;7.00;;;1.88;;
69714;SDS011;56981;53.532;49.398;2023-04-03T04:05:44;4.28;;;1.42;;
69714;SDS011;56981;53.532;49.398;2023-04-03T04:08:10;7.05;;;1.92;;
69714;SDS011;56981;53.532;49.398;2023-04-03T04:10:36;9.82;;;1.67;;
69714;SDS011;56981;53.532;49.398;2023-04-03T04:13:03;6.50;;;1.27;;
69714;SDS011;56981;53.532;49.398;2023-04-03T04:15:29;2.15;;;1.63;;
69714;SDS011;56981;53.532;49.398;2023-04-03T04:17:56;6.70;;;1.77;;
69714;SDS011;56981;53.532;49.398;2023-04-03T04:20:22;8.88;;;1.77;;
69714;SDS011;56981;53.532;49.398;2023-04-03T04:22:48;4.82;;;1.40;;
69714;SDS011;56981;53.532;49.398;2023-04-03T04:25:15;6.68;;;1.60;;
69714;SDS011;56981;53.532;49.398;2023-04-03T04:27:41;6.95;;;1.63;;
69714;SDS011;56981;53.532;49.398;2023-04-03T04:30:07;9.82;;;1.40;;
69714;SDS011;56981;53.532;49.398;2023-04-03T04:32:35;3.40;;;1.00;;
69714;SDS011;56981;53.532;49.398;2023-04-03T04:35:01;5.00;;;1.23;;
69714;SDS011;56981;53.532;49.398;2023-04-03T04:41:39;9.25;;;1.48;;
69714;SDS011;56981;53.532;49.398;2023-04-03T04:44:05;4.85;;;1.50;;
69714;SDS011;56981;53.532;49.398;2023-04-03T04:46:32;4.55;;;1.52;;
69714;SDS011;56981;53.532;49.398;2023-04-03T04:48:58;10.35;;;1.52;;
69714;SDS011;56981;53.532;49.398;2023-04-03T04:51:24;8.10;;;1.60;;
69714;SDS011;56981;53.532;49.398;2023-04-03T04:53:50;6.07;;;1.50;;
69714;SDS011;56981;53.532;49.398;2023-04-03T04:56:16;3.63;;;1.63;;
69714;SDS011;56981;53.532;49.398;2023-04-03T04:58:42;5.10;;;1.30;;
69714;SDS011;56981;53.532;49.398;2023-04-03T05:01:09;6.75;;;1.40;;
69714;SDS011;56981;53.532;49.398;2023-04-03T05:03:36;7.25;;;1.23;;
69714;SDS011;56981;53.532;49.398;2023-04-03T05:06:02;9.95;;;1.40;;
69714;SDS011;56981;53.532;49.398;2023-04-03T05:08:29;6.38;;;1.40;;
69714;SDS011;56981;53.532;49.398;2023-04-03T05:10:55;4.65;;;1.50;;
69714;SDS011;56981;53.532;49.398;2023-04-03T05:13:21;8.00;;;1.65;;
69714;SDS011;56981;53.532;49.398;2023-04-03T05:15:47;5.63;;;1.20;;
69714;SDS011;56981;53.532;49.398;2023-04-03T05:18:13;4.68;;;1.20;;
69714;SDS011;56981;53.532;49.398;2023-04-03T05:20:39;5.80;;;1.35;;
69714;SDS011;56981;53.532;49.398;2023-04-03T05:23:05;8.30;;;1.48;;
69714;SDS011;56981;53.532;49.398;2023-04-03T05:25:31;3.08;;;1.17;;
69714;SDS011;56981;53.532;49.398;2023-04-03T05:27:57;4.82;;;1.13;;
69714;SDS011;56981;53.532;49.398;2023-04-03T05:30:24;14.45;;;2.03;;
69714;SDS011;56981;53.532;49.398;2023-04-03T05:32:50;5.28;;;1.20;;
69714;SDS011;56981;53.532;49.398;2023-04-03T05:35:16;5.25;;;1.70;;
69714;SDS011;56981;53.532;49.398;2023-04-03T05:37:42;5.78;;;1.30;;
69714;SDS011;56981;53.532;49.398;2023-04-03T05:40:08;8.25;;;1.30;;
69714;SDS011;56981;53.532;49.398;2023-04-03T05:42:35;3.47;;;1.42;;
69714;SDS011;56981;53.532;49.398;2023-04-03T05:45:01;7.13;;;1.30;;
69714;SDS011;56981;53.532;49.398;2023-04-03T05:47:27;1.75;;;1.30;;
69714;SDS011;56981;53.532;49.398;2023-04-03T05:49:52;3.70;;;1.00;;
69714;SDS011;56981;53.532;49.398;2023-04-03T05:52:38;9.50;;;1.40;;
69714;SDS011;56981;53.532;49.398;2023-04-03T05:55:06;5.10;;;1.55;;
69714;SDS011;56981;53.532;49.398;2023-04-03T05:57:33;8.05;;;1.80;;
69714;SDS011;56981;53.532;49.398;2023-04-03T05:59:59;5.95;;;1.80;;
69714;SDS011;56981;53.532;49.398;2023-04-03T06:02:25;8.27;;;1.58;;
69714;SDS011;56981;53.532;49.398;2023-04-03T06:04:52;4.93;;;1.25;;
69714;SDS011;56981;53.532;49.398;2023-04-03T06:07:19;6.55;;;1.67;;
69714;SDS011;56981;53.532;49.398;2023-04-03T06:09:48;5.32;;;1.35;;
69714;SDS011;56981;53.532;49.398;2023-04-03T06:12:16;7.30;;;1.85;;
69714;SDS011;56981;53.532;49.398;2023-04-03T06:14:43;3.67;;;1.50;;
69714;SDS011;56981;53.532;49.398;2023-04-03T06:17:10;16.95;;;2.25;;
69714;SDS011;56981;53.532;49.398;2023-04-03T06:19:37;8.98;;;1.65;;
69714;SDS011;56981;53.532;49.398;2023-04-03T06:22:03;3.80;;;1.27;;
69714;SDS011;56981;53.532;49.398;2023-04-03T06:24:30;10.98;;;1.60;;
69714;SDS011;56981;53.532;49.398;2023-04-03T06:26:57;6.93;;;1.90;;
69714;SDS011;56981;53.532;49.398;2023-04-03T06:29:24;8.00;;;1.80;;
69714;SDS011;56981;53.532;49.398;2023-04-03T06:31:50;10.35;;;2.70;;
69714;SDS011;56981;53.532;49.398;2023-04-03T06:34:16;10.68;;;4.10;;
69714;SDS011;56981;53.532;49.398;2023-04-03T06:36:43;6.80;;;1.42;;
69714;SDS011;56981;53.532;49.398;2023-04-03T06:39:14;8.07;;;2.78;;
69714;SDS011;56981;53.532;49.398;2023-04-03T06:41:42;4.90;;;2.47;;
69714;SDS011;56981;53.532;49.398;2023-04-03T06:44:09;11.02;;;2.55;;
69714;SDS011;56981;53.532;49.398;2023-04-03T06:46:37;7.28;;;2.00;;
69714;SDS011;56981;53.532;49.398;2023-04-03T06:49:04;8.13;;;1.80;;
69714;SDS011;56981;53.532;49.398;2023-04-03T06:51:33;11.15;;;1.80;;
69714;SDS011;56981;53.532;49.398;2023-04-03T06:53:59;7.32;;;1.30;;
69714;SDS011;56981;53.532;49.398;2023-04-03T06:56:26;5.00;;;1.42;;
69714;SDS011;56981;53.532;49.398;2023-04-03T06:58:53;7.35;;;1.40;;
69714;SDS011;56981;53.532;49.398;2023-04-03T07:01:21;5.13;;;1.77;;
69714;SDS011;56981;53.532;49.398;2023-04-03T07:03:49;8.60;;;1.80;;
69714;SDS011;56981;53.532;49.398;2023-04-03T07:06:16;3.80;;;1.73;;
69714;SDS011;56981;53.532;49.398;2023-04-03T07:08:44;7.65;;;1.50;;
69714;SDS011;56981;53.532;49.398;2023-04-03T07:11:13;8.65;;;1.58;;
69714;SDS011;56981;53.532;49.398;2023-04-03T07:13:40;4.95;;;1.80;;
69714;SDS011;56981;53.532;49.398;2023-04-03T07:16:06;8.07;;;2.63;;
69714;SDS011;56981;53.532;49.398;2023-04-03T07:18:34;8.30;;;2.05;;
69714;SDS011;56981;53.532;49.398;2023-04-03T07:21:00;6.93;;;1.83;;
69714;SDS011;56981;53.532;49.398;2023-04-03T07:23:27;7.78;;;2.13;;
69714;SDS011;56981;53.532;49.398;2023-04-03T07:25:53;5.05;;;1.65;;
69714;SDS011;56981;53.532;49.398;2023-04-03T07:28:20;6.32;;;1.90;;
69714;SDS011;56981;53.532;49.398;2023-04-03T07:30:48;8.05;;;1.98;;
69714;SDS011;56981;53.532;49.398;2023-04-03T07:33:17;9.68;;;2.50;;
69714;SDS011;56981;53.532;49.398;2023-04-03T07:35:46;6.40;;;2.15;;
69714;SDS011;56981;53.532;49.398;2023-04-03T07:38:12;5.25;;;1.48;;
69714;SDS011;56981;53.532;49.398;2023-04-03T07:40:38;9.60;;;1.60;;
69714;SDS011;56981;53.532;49.398;2023-04-03T07:43:05;9.95;;;1.90;;
69714;SDS011;56981;53.532;49.398;2023-04-03T07:45:32;12.18;;;1.50;;
69714;SDS011;56981;53.532;49.398;2023-04-03T07:48:00;8.23;;;1.60;;
69714;SDS011;56981;53.532;49.398;2023-04-03T07:50:30;7.95;;;2.13;;
69714;SDS011;56981;53.532;49.398;2023-04-03T07:52:58;5.88;;;1.27;;
69714;SDS011;56981;53.532;49.398;2023-04-03T07:55:24;6.72;;;1.48;;
69714;SDS011;56981;53.532;49.398;2023-04-03T07:57:51;4.40;;;1.25;;
69714;SDS011;56981;53.532;49.398;2023-04-03T08:00:17;6.60;;;1.15;;
69714;SDS011;56981;53.532;49.398;2023-04-03T08:02:45;9.88;;;1.25;;
69714;SDS011;56981;53.532;49.398;2023-04-03T08:05:16;5.97;;;1.05;;
69714;SDS011;56981;53.532;49.398;2023-04-03T08:07:46;4.85;;;1.42;;
69714;SDS011;56981;53.532;49.398;2023-04-03T08:10:13;7.57;;;1.60;;
69714;SDS011;56981;53.532;49.398;2023-04-03T08:12:40;7.38;;;1.38;;
69714;SDS011;56981;53.532;49.398;2023-04-03T08:15:07;6.90;;;1.48;;
69714;SDS011;56981;53.532;49.398;2023-04-03T08:17:34;8.70;;;1.60;;
69714;SDS011;56981;53.532;49.398;2023-04-03T08:20:00;8.52;;;1.33;;
69714;SDS011;56981;53.532;49.398;2023-04-03T08:22:27;8.38;;;1.10;;
69714;SDS011;56981;53.532;49.398;2023-04-03T08:24:53;8.50;;;1.33;;
69714;SDS011;56981;53.532;49.398;2023-04-03T08:27:19;9.00;;;1.50;;
69714;SDS011;56981;53.532;49.398;2023-04-03T08:29:46;6.03;;;1.60;;
69714;SDS011;56981;53.532;49.398;2023-04-03T08:32:12;9.93;;;1.60;;
69714;SDS011;56981;53.532;49.398;2023-04-03T08:34:38;7.65;;;1.10;;
69714;SDS011;56981;53.532;49.398;2023-04-03T08:37:05;9.43;;;1.40;;
69714;SDS011;56981;53.532;49.398;2023-04-03T08:39:31;9.75;;;2.20;;
69714;SDS011;56981;53.532;49.398;2023-04-03T08:41:58;9.38;;;1.73;;
69714;SDS011;56981;53.532;49.398;2023-04-03T08:47:11;6.05;;;1.48;;
69714;SDS011;56981;53.532;49.398;2023-04-03T08:49:57;9.00;;;1.65;;
69714;SDS011;56981;53.532;49.398;2023-04-03T08:52:39;11.07;;;1.60;;
69714;SDS011;56981;53.532;49.398;2023-04-03T08:57:39;10.77;;;1.70;;
69714;SDS011;56981;53.532;49.398;2023-04-03T09:00:16;9.27;;;1.60;;
69714;SDS011;56981;53.532;49.398;2023-04-03T09:02:49;6.72;;;2.17;;
69714;SDS011;56981;53.532;49.398;2023-04-03T09:05:17;9.93;;;1.58;;
69714;SDS011;56981;53.532;49.398;2023-04-03T09:07:51;8.05;;;1.50;;
69714;SDS011;56981;53.532;49.398;2023-04-03T09:10:30;5.25;;;1.15;;
69714;SDS011;56981;53.532;49.398;2023-04-03T09:13:05;9.40;;;1.60;;
69714;SDS011;56981;53.532;49.398;2023-04-03T09:15:52;10.52;;;1.20;;
69714;SDS011;56981;53.532;49.398;2023-04-03T09:18:21;12.45;;;1.90;;
69714;SDS011;56981;53.532;49.398;2023-04-03T09:23:43;5.38;;;1.63;;
69714;SDS011;56981;53.532;49.398;2023-04-03T09:28:45;10.75;;;1.23;;
69714;SDS011;56981;53.532;49.398;2023-04-03T09:31:22;6.22;;;1.25;;
69714;SDS011;56981;53.532;49.398;2023-04-03T09:33:54;4.90;;;1.23;;
69714;SDS011;56981;53.532;49.398;2023-04-03T09:36:44;8.35;;;1.35;;
69714;SDS011;56981;53.532;49.398;2023-04-03T09:39:16;6.20;;;1.40;;
69714;SDS011;56981;53.532;49.398;2023-04-03T09:42:44;8.68;;;1.35;;
69714;SDS011;56981;53.532;49.398;2023-04-03T09:44:53;10.98;;;1.55;;
69714;SDS011;56981;53.532;49.398;2023-04-03T09:47:25;12.00;;;1.48;;
69714;SDS011;56981;53.532;49.398;2023-04-03T09:52:40;10.75;;;1.67;;
69714;SDS011;56981;53.532;49.398;2023-04-03T09:55:13;6.25;;;0.95;;
69714;SDS011;56981;53.532;49.398;2023-04-03T09:57:43;7.00;;;1.40;;
69714;SDS011;56981;53.532;49.398;2023-04-03T10:00:21;7.32;;;2.20;;
69714;SDS011;56981;53.532;49.398;2023-04-03T10:02:55;8.18;;;1.30;;
69714;SDS011;56981;53.532;49.398;2023-04-03T10:10:41;9.57;;;2.13;;
69714;SDS011;56981;53.532;49.398;2023-04-03T10:13:14;5.50;;;1.80;;
69714;SDS011;56981;53.532;49.398;2023-04-03T10:15:43;12.50;;;1.90;;
69714;SDS011;56981;53.532;49.398;2023-04-03T10:21:06;22.55;;;2.55;;
69714;SDS011;56981;53.532;49.398;2023-04-03T10:23:45;12.73;;;1.65;;
69714;SDS011;56981;53.532;49.398;2023-04-03T10:32:02;11.65;;;1.45;;
69714;SDS011;56981;53.532;49.398;2023-04-03T10:34:45;7.50;;;1.15;;
69714;SDS011;56981;53.532;49.398;2023-04-03T10:46:27;7.28;;;1.70;;
69714;SDS011;56981;53.532;49.398;2023-04-03T10:51:20;11.23;;;1.75;;
69714;SDS011;56981;53.532;49.398;2023-04-03T10:54:08;8.05;;;1.30;;
69714;SDS011;56981;53.532;49.398;2023-04-03T10:56:42;12.07;;;1.48;;
69714;SDS011;56981;53.532;49.398;2023-04-03T10:59:18;7.78;;;1.67;;
69714;SDS011;56981;53.532;49.398;2023-04-03T11:01:56;6.93;;;1.70;;
69714;SDS011;56981;53.532;49.398;2023-04-03T11:04:27;14.02;;;1.50;;
69714;SDS011;56981;53.532;49.398;2023-04-03T11:07:02;14.00;;;2.50;;
69714;SDS011;56981;53.532;49.398;2023-04-03T11:09:35;9.68;;;1.45;;
69714;SDS011;56981;53.532;49.398;2023-04-03T11:14:44;8.02;;;1.80;;
69714;SDS011;56981;53.532;49.398;2023-04-03T11:19:47;7.50;;;1.75;;
69714;SDS011;56981;53.532;49.398;2023-04-03T11:34:49;12.73;;;1.70;;
69714;SDS011;56981;53.532;49.398;2023-04-03T11:37:39;13.82;;;1.90;;
69714;SDS011;56981;53.532;49.398;2023-04-03T11:42:47;12.52;;;1.85;;
69714;SDS011;56981;53.532;49.398;2023-04-03T11:45:32;11.10;;;2.17;;
69714;SDS011;56981;53.532;49.398;2023-04-03T11:48:03;7.50;;;2.15;;
69714;SDS011;56981;53.532;49.398;2023-04-03T12:03:30;11.48;;;1.65;;
69714;SDS011;56981;53.532;49.398;2023-04-03T12:08:43;9.93;;;1.55;;
69714;SDS011;56981;53.532;49.398;2023-04-03T12:16:27;10.55;;;1.90;;
69714;SDS011;56981;53.532;49.398;2023-04-03T12:23:59;12.30;;;1.80;;
69714;SDS011;56981;53.532;49.398;2023-04-03T12:26:41;12.18;;;2.25;;
69714;SDS011;56981;53.532;49.398;2023-04-03T12:29:13;8.02;;;1.33;;
69714;SDS011;56981;53.532;49.398;2023-04-03T12:31:47;15.18;;;2.47;;
69714;SDS011;56981;53.532;49.398;2023-04-03T12:34:45;7.40;;;1.40;;
69714;SDS011;56981;53.532;49.398;2023-04-03T12:48:30;5.03;;;1.27;;
69714;SDS011;56981;53.532;49.398;2023-04-03T12:50:59;9.35;;;1.48;;
69714;SDS011;56981;53.532;49.398;2023-04-03T12:53:28;9.43;;;1.52;;
69714;SDS011;56981;53.532;49.398;2023-04-03T13:02:00;12.75;;;2.13;;
69714;SDS011;56981;53.532;49.398;2023-04-03T13:04:27;9.82;;;2.13;;
69714;SDS011;56981;53.532;49.398;2023-04-03T13:06:54;9.68;;;1.55;;
69714;SDS011;56981;53.532;49.398;2023-04-03T13:09:21;12.27;;;2.00;;
69714;SDS011;56981;53.532;49.398;2023-04-03T13:11:50;15.88;;;1.58;;
69714;SDS011;56981;53.532;49.398;2023-04-03T13:14:24;12.30;;;3.05;;
69714;SDS011;56981;53.532;49.398;2023-04-03T13:19:25;8.18;;;1.48;;
69714;SDS011;56981;53.532;49.398;2023-04-03T13:22:38;7.60;;;1.30;;
69714;SDS011;56981;53.532;49.398;2023-04-03T13:24:48;7.95;;;1.25;;
69714;SDS011;56981;53.532;49.398;2023-04-03T13:27:16;9.13;;;1.50;;
69714;SDS011;56981;53.532;49.398;2023-04-03T13:29:43;7.38;;;1.00;;
69714;SDS011;56981;53.532;49.398;2023-04-03T13:32:18;5.93;;;1.30;;
69714;SDS011;56981;53.532;49.398;2023-04-03T13:34:49;9.60;;;1.30;;
69714;SDS011;56981;53.532;49.398;2023-04-03T13:37:23;9.07;;;1.25;;
69714;SDS011;56981;53.532;49.398;2023-04-03T13:40:14;11.57;;;1.38;;
69714;SDS011;56981;53.532;49.398;2023-04-03T13:42:41;15.02;;;1.98;;
69714;SDS011;56981;53.532;49.398;2023-04-03T13:45:26;9.57;;;1.80;;
69714;SDS011;56981;53.532;49.398;2023-04-03T13:48:15;6.18;;;1.38;;
69714;SDS011;56981;53.532;49.398;2023-04-03T13:50:53;10.45;;;1.55;;
69714;SDS011;56981;53.532;49.398;2023-04-03T13:53:26;9.70;;;1.38;;
69714;SDS011;56981;53.532;49.398;2023-04-03T13:55:56;10.95;;;1.30;;
69714;SDS011;56981;53.532;49.398;2023-04-03T13:58:33;7.78;;;2.17;;
69714;SDS011;56981;53.532;49.398;2023-04-03T14:01:17;10.57;;;1.58;;
69714;SDS011;56981;53.532;49.398;2023-04-03T14:03:56;15.20;;;1.50;;
69714;SDS011;56981;53.532;49.398;2023-04-03T14:06:24;8.63;;;1.40;;
69714;SDS011;56981;53.532;49.398;2023-04-03T14:08:53;10.23;;;1.60;;
69714;SDS011;56981;53.532;49.398;2023-04-03T14:11:27;15.50;;;1.90;;
69714;SDS011;56981;53.532;49.398;2023-04-03T14:13:57;12.13;;;2.30;;
69714;SDS011;56981;53.532;49.398;2023-04-03T14:21:22;13.55;;;2.25;;
69714;SDS011;56981;53.532;49.398;2023-04-03T14:23:50;10.48;;;2.17;;
69714;SDS011;56981;53.532;49.398;2023-04-03T14:26:17;13.80;;;3.33;;
69714;SDS011;56981;53.532;49.398;2023-04-03T14:28:47;9.65;;;1.58;;
69714;SDS011;56981;53.532;49.398;2023-04-03T14:31:15;16.73;;;2.00;;
69714;SDS011;56981;53.532;49.398;2023-04-03T14:33:43;13.32;;;2.22;;
69714;SDS011;56981;53.532;49.398;2023-04-03T14:36:17;7.75;;;1.30;;
69714;SDS011;56981;53.532;49.398;2023-04-03T14:38:49;10.77;;;2.08;;
69714;SDS011;56981;53.532;49.398;2023-04-03T14:41:17;13.82;;;1.98;;
69714;SDS011;56981;53.532;49.398;2023-04-03T14:43:46;11.95;;;1.50;;
69714;SDS011;56981;53.532;49.398;2023-04-03T14:46:16;11.23;;;1.48;;
69714;SDS011;56981;53.532;49.398;2023-04-03T14:48:45;13.65;;;2.03;;
69714;SDS011;56981;53.532;49.398;2023-04-03T14:51:12;10.23;;;1.90;;
69714;SDS011;56981;53.532;49.398;2023-04-03T14:53:42;12.07;;;2.08;;
69714;SDS011;56981;53.532;49.398;2023-04-03T14:56:12;10.77;;;2.28;;
69714;SDS011;56981;53.532;49.398;2023-04-03T14:58:43;9.82;;;2.40;;
69714;SDS011;56981;53.532;49.398;2023-04-03T15:01:10;11.13;;;3.83;;
69714;SDS011;56981;53.532;49.398;2023-04-03T15:03:44;10.95;;;3.28;;
69714;SDS011;56981;53.532;49.398;2023-04-03T15:06:11;21.33;;;3.45;;
69714;SDS011;56981;53.532;49.398;2023-04-03T15:08:39;20.42;;;3.10;;
69714;SDS011;56981;53.532;49.398;2023-04-03T15:11:08;16.52;;;2.97;;
69714;SDS011;56981;53.532;49.398;2023-04-03T15:13:36;11.75;;;3.45;;
69714;SDS011;56981;53.532;49.398;2023-04-03T15:16:04;20.00;;;3.55;;
69714;SDS011;56981;53.532;49.398;2023-04-03T15:18:37;15.43;;;3.25;;
69714;SDS011;56981;53.532;49.398;2023-04-03T15:21:04;20.95;;;3.28;;
69714;SDS011;56981;53.532;49.398;2023-04-03T15:23:31;22.30;;;2.80;;
69714;SDS011;56981;53.532;49.398;2023-04-03T15:25:57;16.85;;;3.08;;
69714;SDS011;56981;53.532;49.398;2023-04-03T15:28:31;19.60;;;2.70;;
69714;SDS011;56981;53.532;49.398;2023-04-03T15:31:01;11.35;;;2.28;;
69714;SDS011;56981;53.532;49.398;2023-04-03T15:33:28;14.93;;;3.33;;
69714;SDS011;56981;53.532;49.398;2023-04-03T15:35:55;17.25;;;3.65;;
69714;SDS011;56981;53.532;49.398;2023-04-03T15:38:25;18.70;;;3.50;;
69714;SDS011;56981;53.532;49.398;2023-04-03T15:40:51;18.17;;;3.33;;
69714;SDS011;56981;53.532;49.398;2023-04-03T15:43:18;19.58;;;3.20;;
69714;SDS011;56981;53.532;49.398;2023-04-03T15:45:44;15.55;;;3.25;;
69714;SDS011;56981;53.532;49.398;2023-04-03T15:48:11;18.88;;;4.22;;
69714;SDS011;56981;53.532;49.398;2023-04-03T15:50:38;26.73;;;4.55;;
69714;SDS011;56981;53.532;49.398;2023-04-03T15:53:06;21.38;;;4.60;;
69714;SDS011;56981;53.532;49.398;2023-04-03T15:55:33;23.90;;;4.32;;
69714;SDS011;56981;53.532;49.398;2023-04-03T15:58:01;21.67;;;4.65;;
69714;SDS011;56981;53.532;49.398;2023-04-03T16:00:28;19.23;;;5.05;;
69714;SDS011;56981;53.532;49.398;2023-04-03T16:03:02;18.00;;;5.93;;
69714;SDS011;56981;53.532;49.398;2023-04-03T16:05:31;22.10;;;5.53;;
69714;SDS011;56981;53.532;49.398;2023-04-03T16:08:01;22.98;;;5.30;;
69714;SDS011;56981;53.532;49.398;2023-04-03T16:10:36;23.25;;;4.93;;
69714;SDS011;56981;53.532;49.398;2023-04-03T16:13:26;25.13;;;4.45;;
69714;SDS011;56981;53.532;49.398;2023-04-03T16:15:52;15.80;;;4.35;;
69714;SDS011;56981;53.532;49.398;2023-04-03T16:18:21;26.13;;;5.32;;
69714;SDS011;56981;53.532;49.398;2023-04-03T16:20:48;15.10;;;3.92;;
69714;SDS011;56981;53.532;49.398;2023-04-03T16:23:26;36.10;;;5.00;;
69714;SDS011;56981;53.532;49.398;2023-04-03T16:28:55;23.15;;;5.70;;
69714;SDS011;56981;53.532;49.398;2023-04-03T16:31:21;21.65;;;5.45;;
69714;SDS011;56981;53.532;49.398;2023-04-03T16:33:57;27.60;;;5.50;;
69714;SDS011;56981;53.532;49.398;2023-04-03T16:36:26;31.85;;;6.68;;
69714;SDS011;56981;53.532;49.398;2023-04-03T16:38:59;25.27;;;6.05;;